sensor_id;sensor_type;location;lat;lon;timestamp;pressure;altitude;pressure_sealevel;temperature;humidity
44663;BME280;30381;52.754;18.258;2023-05-12T00:01:18;101257.71;;;8.82;66.19
44663;BME280;30381;52.754;18.258;2023-05-12T00:03:45;101259.83;;;8.83;66.20
44663;BME280;30381;52.754;18.258;2023-05-12T00:06:11;101259.16;;;8.86;66.60
44663;BME280;30381;52.754;18.258;2023-05-12T00:08:37;101258.96;;;8.90;66.91
44663;BME280;30381;52.754;18.258;2023-05-12T00:11:04;101261.23;;;8.93;66.94
44663;BME280;30381;52.754;18.258;2023-05-12T00:13:31;101256.30;;;8.96;66.99
44663;BME280;30381;52.754;18.258;2023-05-12T00:15:57;101254.88;;;8.97;66.90
44663;BME280;30381;52.754;18.258;2023-05-12T00:18:24;101255.38;;;8.97;67.41
44663;BME280;30381;52.754;18.258;2023-05-12T00:20:51;101254.89;;;8.96;67.40
44663;BME280;30381;52.754;18.258;2023-05-12T00:23:19;101256.13;;;8.95;67.27
44663;BME280;30381;52.754;18.258;2023-05-12T00:25:45;101251.77;;;8.94;67.36
44663;BME280;30381;52.754;18.258;2023-05-12T00:28:12;101250.78;;;8.92;67.45
44663;BME280;30381;52.754;18.258;2023-05-12T00:30:38;101249.84;;;8.88;67.66
44663;BME280;30381;52.754;18.258;2023-05-12T00:33:04;101247.60;;;8.85;67.66
44663;BME280;30381;52.754;18.258;2023-05-12T00:35:30;101245.07;;;8.81;67.67
44663;BME280;30381;52.754;18.258;2023-05-12T00:37:57;101246.11;;;8.78;67.94
44663;BME280;30381;52.754;18.258;2023-05-12T00:40:23;101250.63;;;8.73;68.25
44663;BME280;30381;52.754;18.258;2023-05-12T00:42:50;101250.14;;;8.69;68.21
44663;BME280;30381;52.754;18.258;2023-05-12T00:45:16;101249.34;;;8.64;68.39
44663;BME280;30381;52.754;18.258;2023-05-12T00:47:43;101248.23;;;8.61;68.55
44663;BME280;30381;52.754;18.258;2023-05-12T00:50:09;101251.30;;;8.58;68.87
44663;BME280;30381;52.754;18.258;2023-05-12T00:52:37;101252.17;;;8.57;68.87
44663;BME280;30381;52.754;18.258;2023-05-12T00:55:04;101255.66;;;8.59;69.41
44663;BME280;30381;52.754;18.258;2023-05-12T00:57:32;101257.32;;;8.61;69.66
44663;BME280;30381;52.754;18.258;2023-05-12T00:59:59;101260.93;;;8.65;69.52
44663;BME280;30381;52.754;18.258;2023-05-12T01:02:25;101257.56;;;8.70;69.92
44663;BME280;30381;52.754;18.258;2023-05-12T01:04:51;101264.69;;;8.73;69.60
44663;BME280;30381;52.754;18.258;2023-05-12T01:07:20;101264.11;;;8.71;69.71
44663;BME280;30381;52.754;18.258;2023-05-12T01:09:52;101266.77;;;8.67;70.02
44663;BME280;30381;52.754;18.258;2023-05-12T01:12:18;101266.27;;;8.67;70.05
44663;BME280;30381;52.754;18.258;2023-05-12T01:14:46;101264.27;;;8.67;70.09
44663;BME280;30381;52.754;18.258;2023-05-12T01:17:13;101264.67;;;8.65;70.08
44663;BME280;30381;52.754;18.258;2023-05-12T01:19:51;101265.77;;;8.64;70.15
44663;BME280;30381;52.754;18.258;2023-05-12T01:22:19;101269.80;;;8.60;70.28
44663;BME280;30381;52.754;18.258;2023-05-12T01:27:16;101269.02;;;8.55;71.03
44663;BME280;30381;52.754;18.258;2023-05-12T01:29:44;101270.29;;;8.53;71.00
44663;BME280;30381;52.754;18.258;2023-05-12T01:32:11;101278.70;;;8.52;70.97
44663;BME280;30381;52.754;18.258;2023-05-12T01:34:38;101278.54;;;8.49;71.17
44663;BME280;30381;52.754;18.258;2023-05-12T01:37:04;101276.00;;;8.47;71.38
44663;BME280;30381;52.754;18.258;2023-05-12T01:39:30;101278.16;;;8.46;71.50
44663;BME280;30381;52.754;18.258;2023-05-12T01:41:56;101283.35;;;8.44;71.58
44663;BME280;30381;52.754;18.258;2023-05-12T01:44:22;101282.80;;;8.42;71.47
44663;BME280;30381;52.754;18.258;2023-05-12T01:46:50;101285.38;;;8.39;71.78
44663;BME280;30381;52.754;18.258;2023-05-12T01:49:16;101282.54;;;8.34;71.99
44663;BME280;30381;52.754;18.258;2023-05-12T01:51:43;101281.59;;;8.31;72.13
44663;BME280;30381;52.754;18.258;2023-05-12T01:54:09;101286.28;;;8.28;72.06
44663;BME280;30381;52.754;18.258;2023-05-12T01:56:36;101289.33;;;8.24;72.14
44663;BME280;30381;52.754;18.258;2023-05-12T01:59:02;101290.02;;;8.21;72.34
44663;BME280;30381;52.754;18.258;2023-05-12T02:01:29;101289.45;;;8.17;72.61
44663;BME280;30381;52.754;18.258;2023-05-12T02:03:57;101292.71;;;8.14;72.52
44663;BME280;30381;52.754;18.258;2023-05-12T02:06:24;101290.34;;;8.09;72.85
44663;BME280;30381;52.754;18.258;2023-05-12T02:08:51;101294.02;;;8.06;73.07
44663;BME280;30381;52.754;18.258;2023-05-12T02:11:17;101294.58;;;8.02;73.20
44663;BME280;30381;52.754;18.258;2023-05-12T02:13:43;101299.75;;;7.98;73.41
44663;BME280;30381;52.754;18.258;2023-05-12T02:16:10;101297.67;;;7.95;73.50
44663;BME280;30381;52.754;18.258;2023-05-12T02:18:36;101298.73;;;7.92;73.99
44663;BME280;30381;52.754;18.258;2023-05-12T02:21:02;101298.48;;;7.90;74.30
44663;BME280;30381;52.754;18.258;2023-05-12T02:23:29;101303.85;;;7.88;74.30
44663;BME280;30381;52.754;18.258;2023-05-12T02:25:56;101299.13;;;7.86;74.54
44663;BME280;30381;52.754;18.258;2023-05-12T02:28:22;101302.15;;;7.84;74.58
44663;BME280;30381;52.754;18.258;2023-05-12T02:30:49;101300.92;;;7.83;74.80
44663;BME280;30381;52.754;18.258;2023-05-12T02:33:16;101300.02;;;7.80;74.71
44663;BME280;30381;52.754;18.258;2023-05-12T02:35:43;101302.63;;;7.78;75.19
44663;BME280;30381;52.754;18.258;2023-05-12T02:38:11;101304.80;;;7.75;75.19
44663;BME280;30381;52.754;18.258;2023-05-12T02:40:37;101303.05;;;7.73;75.39
44663;BME280;30381;52.754;18.258;2023-05-12T02:43:04;101308.18;;;7.72;75.94
44663;BME280;30381;52.754;18.258;2023-05-12T02:45:31;101304.38;;;7.71;75.79
44663;BME280;30381;52.754;18.258;2023-05-12T02:47:57;101308.01;;;7.70;75.92
44663;BME280;30381;52.754;18.258;2023-05-12T02:50:23;101310.16;;;7.68;75.97
44663;BME280;30381;52.754;18.258;2023-05-12T02:52:49;101309.02;;;7.66;75.97
44663;BME280;30381;52.754;18.258;2023-05-12T02:55:16;101310.75;;;7.64;76.12
44663;BME280;30381;52.754;18.258;2023-05-12T02:57:42;101310.96;;;7.64;76.38
44663;BME280;30381;52.754;18.258;2023-05-12T03:00:09;101307.06;;;7.62;76.36
44663;BME280;30381;52.754;18.258;2023-05-12T03:02:36;101310.66;;;7.62;76.55
44663;BME280;30381;52.754;18.258;2023-05-12T03:05:04;101311.77;;;7.61;77.05
44663;BME280;30381;52.754;18.258;2023-05-12T03:07:30;101310.79;;;7.64;77.10
44663;BME280;30381;52.754;18.258;2023-05-12T03:09:57;101313.55;;;7.66;77.13
44663;BME280;30381;52.754;18.258;2023-05-12T03:12:23;101310.77;;;7.69;77.73
44663;BME280;30381;52.754;18.258;2023-05-12T03:14:57;101317.16;;;7.72;77.71
44663;BME280;30381;52.754;18.258;2023-05-12T03:17:23;101314.20;;;7.76;77.62
44663;BME280;30381;52.754;18.258;2023-05-12T03:19:49;101313.92;;;7.79;77.52
44663;BME280;30381;52.754;18.258;2023-05-12T03:22:16;101315.27;;;7.83;77.79
44663;BME280;30381;52.754;18.258;2023-05-12T03:24:42;101315.48;;;7.87;77.81
44663;BME280;30381;52.754;18.258;2023-05-12T03:27:09;101318.40;;;7.91;77.86
44663;BME280;30381;52.754;18.258;2023-05-12T03:32:12;101317.30;;;8.04;78.13
44663;BME280;30381;52.754;18.258;2023-05-12T03:34:38;101317.81;;;8.09;78.19
44663;BME280;30381;52.754;18.258;2023-05-12T03:37:04;101316.99;;;8.15;78.27
44663;BME280;30381;52.754;18.258;2023-05-12T03:39:30;101317.82;;;8.38;78.48
44663;BME280;30381;52.754;18.258;2023-05-12T03:41:56;101317.45;;;9.22;78.56
44663;BME280;30381;52.754;18.258;2023-05-12T03:44:22;101314.32;;;10.25;78.14
44663;BME280;30381;52.754;18.258;2023-05-12T03:46:48;101320.23;;;11.20;77.45
44663;BME280;30381;52.754;18.258;2023-05-12T03:51:41;101319.29;;;12.98;75.04
44663;BME280;30381;52.754;18.258;2023-05-12T03:54:08;101323.77;;;13.80;74.31
44663;BME280;30381;52.754;18.258;2023-05-12T03:56:34;101321.77;;;14.64;72.96
44663;BME280;30381;52.754;18.258;2023-05-12T03:59:00;101322.89;;;15.36;71.55
44663;BME280;30381;52.754;18.258;2023-05-12T04:01:26;101324.49;;;16.02;70.39
44663;BME280;30381;52.754;18.258;2023-05-12T04:03:52;101326.27;;;16.59;69.09
44663;BME280;30381;52.754;18.258;2023-05-12T04:06:18;101324.80;;;17.21;68.35
44663;BME280;30381;52.754;18.258;2023-05-12T04:08:44;101326.27;;;17.84;67.64
44663;BME280;30381;52.754;18.258;2023-05-12T04:11:10;101325.98;;;18.41;65.41
44663;BME280;30381;52.754;18.258;2023-05-12T04:13:36;101323.77;;;18.85;64.30
44663;BME280;30381;52.754;18.258;2023-05-12T04:16:03;101323.41;;;19.23;62.81
44663;BME280;30381;52.754;18.258;2023-05-12T04:18:29;101320.99;;;19.64;62.60
44663;BME280;30381;52.754;18.258;2023-05-12T04:20:55;101323.81;;;20.11;62.34
44663;BME280;30381;52.754;18.258;2023-05-12T04:23:22;101321.47;;;20.61;61.44
44663;BME280;30381;52.754;18.258;2023-05-12T04:25:48;101325.55;;;20.99;59.31
44663;BME280;30381;52.754;18.258;2023-05-12T04:28:14;101321.75;;;21.20;58.49
44663;BME280;30381;52.754;18.258;2023-05-12T04:30:41;101325.07;;;21.52;57.96
44663;BME280;30381;52.754;18.258;2023-05-12T04:33:08;101325.30;;;21.76;56.11
44663;BME280;30381;52.754;18.258;2023-05-12T04:35:35;101319.85;;;21.85;55.41
44663;BME280;30381;52.754;18.258;2023-05-12T04:38:01;101332.11;;;22.02;54.97
44663;BME280;30381;52.754;18.258;2023-05-12T04:40:27;101331.25;;;22.26;54.52
44663;BME280;30381;52.754;18.258;2023-05-12T04:42:54;101333.88;;;22.46;53.03
44663;BME280;30381;52.754;18.258;2023-05-12T04:45:20;101336.76;;;22.45;51.88
44663;BME280;30381;52.754;18.258;2023-05-12T04:47:46;101336.98;;;22.52;51.62
44663;BME280;30381;52.754;18.258;2023-05-12T04:50:12;101336.30;;;22.64;50.81
44663;BME280;30381;52.754;18.258;2023-05-12T04:52:38;101339.60;;;22.69;49.87
44663;BME280;30381;52.754;18.258;2023-05-12T04:55:05;101340.69;;;22.65;49.53
44663;BME280;30381;52.754;18.258;2023-05-12T04:57:32;101341.70;;;22.61;47.74
44663;BME280;30381;52.754;18.258;2023-05-12T04:59:58;101348.02;;;22.52;48.23
44663;BME280;30381;52.754;18.258;2023-05-12T05:02:24;101347.35;;;22.67;47.96
44663;BME280;30381;52.754;18.258;2023-05-12T05:04:51;101348.09;;;22.61;46.91
44663;BME280;30381;52.754;18.258;2023-05-12T05:07:17;101349.92;;;22.57;45.79
44663;BME280;30381;52.754;18.258;2023-05-12T05:09:43;101352.86;;;22.51;46.56
44663;BME280;30381;52.754;18.258;2023-05-12T05:12:09;101352.65;;;22.75;46.78
44663;BME280;30381;52.754;18.258;2023-05-12T05:14:35;101353.05;;;22.92;46.49
44663;BME280;30381;52.754;18.258;2023-05-12T05:17:01;101354.36;;;23.15;45.33
44663;BME280;30381;52.754;18.258;2023-05-12T05:19:28;101355.58;;;23.02;44.15
44663;BME280;30381;52.754;18.258;2023-05-12T05:21:54;101357.22;;;22.93;44.26
44663;BME280;30381;52.754;18.258;2023-05-12T05:24:20;101357.88;;;22.86;42.79
44663;BME280;30381;52.754;18.258;2023-05-12T05:26:46;101355.48;;;22.61;43.07
44663;BME280;30381;52.754;18.258;2023-05-12T05:29:12;101358.81;;;22.56;42.20
44663;BME280;30381;52.754;18.258;2023-05-12T05:31:38;101358.80;;;22.48;42.46
44663;BME280;30381;52.754;18.258;2023-05-12T05:34:04;101358.15;;;22.64;42.29
44663;BME280;30381;52.754;18.258;2023-05-12T05:36:30;101358.23;;;22.65;42.49
44663;BME280;30381;52.754;18.258;2023-05-12T05:38:56;101359.69;;;22.77;43.07
44663;BME280;30381;52.754;18.258;2023-05-12T05:41:22;101357.78;;;22.78;42.38
44663;BME280;30381;52.754;18.258;2023-05-12T05:43:48;101358.92;;;22.71;41.43
44663;BME280;30381;52.754;18.258;2023-05-12T05:46:16;101363.16;;;22.41;41.10
44663;BME280;30381;52.754;18.258;2023-05-12T05:48:42;101367.33;;;22.26;40.94
44663;BME280;30381;52.754;18.258;2023-05-12T05:51:08;101366.57;;;22.16;39.68
44663;BME280;30381;52.754;18.258;2023-05-12T05:53:36;101373.20;;;22.01;40.02
44663;BME280;30381;52.754;18.258;2023-05-12T05:56:02;101372.34;;;21.94;40.65
44663;BME280;30381;52.754;18.258;2023-05-12T05:58:29;101376.18;;;22.10;40.60
44663;BME280;30381;52.754;18.258;2023-05-12T06:00:55;101373.66;;;22.13;40.49
44663;BME280;30381;52.754;18.258;2023-05-12T06:03:22;101374.84;;;22.03;39.85
44663;BME280;30381;52.754;18.258;2023-05-12T06:05:48;101378.98;;;21.85;39.45
44663;BME280;30381;52.754;18.258;2023-05-12T06:08:14;101380.16;;;21.83;39.53
44663;BME280;30381;52.754;18.258;2023-05-12T06:10:40;101387.76;;;21.78;39.06
44663;BME280;30381;52.754;18.258;2023-05-12T06:13:07;101390.89;;;21.62;38.81
44663;BME280;30381;52.754;18.258;2023-05-12T06:15:33;101390.84;;;21.45;39.40
44663;BME280;30381;52.754;18.258;2023-05-12T06:18:11;101386.95;;;21.55;39.43
44663;BME280;30381;52.754;18.258;2023-05-12T06:21:23;101392.84;;;21.50;39.20
44663;BME280;30381;52.754;18.258;2023-05-12T06:24:55;101398.84;;;21.32;39.36
44663;BME280;30381;52.754;18.258;2023-05-12T06:27:35;101402.16;;;21.46;39.26
44663;BME280;30381;52.754;18.258;2023-05-12T06:30:01;101399.00;;;21.43;39.54
44663;BME280;30381;52.754;18.258;2023-05-12T06:32:29;101399.02;;;21.54;39.80
44663;BME280;30381;52.754;18.258;2023-05-12T06:34:55;101402.05;;;21.58;39.15
44663;BME280;30381;52.754;18.258;2023-05-12T06:37:21;101405.54;;;21.39;39.33
44663;BME280;30381;52.754;18.258;2023-05-12T06:39:47;101406.58;;;21.45;39.96
44663;BME280;30381;52.754;18.258;2023-05-12T06:42:13;101400.04;;;21.78;40.99
44663;BME280;30381;52.754;18.258;2023-05-12T06:44:40;101400.64;;;22.19;40.93
44663;BME280;30381;52.754;18.258;2023-05-12T06:47:06;101406.73;;;22.23;40.02
44663;BME280;30381;52.754;18.258;2023-05-12T06:49:32;101402.01;;;22.23;39.40
44663;BME280;30381;52.754;18.258;2023-05-12T06:52:05;101401.71;;;22.46;39.01
44663;BME280;30381;52.754;18.258;2023-05-12T06:54:37;101404.21;;;22.69;38.82
44663;BME280;30381;52.754;18.258;2023-05-12T06:57:06;101410.80;;;22.72;37.30
44663;BME280;30381;52.754;18.258;2023-05-12T06:59:32;101403.80;;;22.58;37.44
44663;BME280;30381;52.754;18.258;2023-05-12T07:01:59;101397.68;;;22.71;38.05
44663;BME280;30381;52.754;18.258;2023-05-12T07:04:26;101399.89;;;23.01;37.85
44663;BME280;30381;52.754;18.258;2023-05-12T07:06:52;101399.94;;;23.08;37.27
44663;BME280;30381;52.754;18.258;2023-05-12T07:11:44;101398.27;;;22.60;36.16
44663;BME280;30381;52.754;18.258;2023-05-12T07:14:11;101398.91;;;22.57;37.01
44663;BME280;30381;52.754;18.258;2023-05-12T07:16:39;101400.89;;;22.74;37.06
44663;BME280;30381;52.754;18.258;2023-05-12T07:19:05;101396.02;;;22.95;37.35
44663;BME280;30381;52.754;18.258;2023-05-12T07:21:35;101397.09;;;23.13;37.30
44663;BME280;30381;52.754;18.258;2023-05-12T07:24:01;101401.52;;;23.33;36.86
44663;BME280;30381;52.754;18.258;2023-05-12T07:26:28;101399.21;;;23.40;36.97
44663;BME280;30381;52.754;18.258;2023-05-12T07:28:56;101399.30;;;23.35;36.04
44663;BME280;30381;52.754;18.258;2023-05-12T07:31:26;101402.09;;;23.22;36.34
44663;BME280;30381;52.754;18.258;2023-05-12T07:34:20;101400.60;;;23.15;36.48
44663;BME280;30381;52.754;18.258;2023-05-12T07:39:12;101404.77;;;22.96;36.01
44663;BME280;30381;52.754;18.258;2023-05-12T07:41:39;101406.61;;;22.74;35.48
44663;BME280;30381;52.754;18.258;2023-05-12T07:44:06;101403.06;;;22.56;36.19
44663;BME280;30381;52.754;18.258;2023-05-12T07:46:32;101405.53;;;22.49;35.88
44663;BME280;30381;52.754;18.258;2023-05-12T07:48:59;101408.36;;;22.38;35.44
44663;BME280;30381;52.754;18.258;2023-05-12T07:51:28;101412.30;;;22.41;35.88
44663;BME280;30381;52.754;18.258;2023-05-12T07:53:54;101403.44;;;22.45;35.82
44663;BME280;30381;52.754;18.258;2023-05-12T07:56:23;101401.33;;;22.58;36.08
44663;BME280;30381;52.754;18.258;2023-05-12T07:58:50;101403.52;;;22.66;35.62
44663;BME280;30381;52.754;18.258;2023-05-12T08:01:17;101404.51;;;22.63;35.49
44663;BME280;30381;52.754;18.258;2023-05-12T08:03:43;101395.45;;;22.57;35.18
44663;BME280;30381;52.754;18.258;2023-05-12T08:06:11;101404.90;;;22.55;35.12
44663;BME280;30381;52.754;18.258;2023-05-12T08:08:37;101400.63;;;22.45;34.42
44663;BME280;30381;52.754;18.258;2023-05-12T08:11:04;101400.27;;;22.26;33.72
44663;BME280;30381;52.754;18.258;2023-05-12T08:13:31;101396.28;;;22.27;33.59
44663;BME280;30381;52.754;18.258;2023-05-12T08:15:58;101402.44;;;22.28;32.89
44663;BME280;30381;52.754;18.258;2023-05-12T08:18:24;101400.77;;;22.06;32.16
44663;BME280;30381;52.754;18.258;2023-05-12T08:20:50;101395.17;;;21.89;33.18
44663;BME280;30381;52.754;18.258;2023-05-12T08:23:16;101399.80;;;21.89;32.52
44663;BME280;30381;52.754;18.258;2023-05-12T08:25:44;101398.60;;;21.77;32.89
44663;BME280;30381;52.754;18.258;2023-05-12T08:28:10;101396.47;;;21.76;32.96
44663;BME280;30381;52.754;18.258;2023-05-12T08:30:38;101398.89;;;21.81;33.57
44663;BME280;30381;52.754;18.258;2023-05-12T08:33:05;101397.56;;;21.95;32.09
44663;BME280;30381;52.754;18.258;2023-05-12T08:35:32;101398.96;;;21.80;31.75
44663;BME280;30381;52.754;18.258;2023-05-12T08:38:00;101388.95;;;21.75;31.59
44663;BME280;30381;52.754;18.258;2023-05-12T08:40:33;101383.22;;;21.75;30.79
44663;BME280;30381;52.754;18.258;2023-05-12T08:43:25;101385.40;;;21.56;30.69
44663;BME280;30381;52.754;18.258;2023-05-12T08:45:58;101387.41;;;21.52;31.02
44663;BME280;30381;52.754;18.258;2023-05-12T08:48:37;101391.51;;;21.56;30.51
44663;BME280;30381;52.754;18.258;2023-05-12T08:51:39;101392.71;;;21.57;31.04
44663;BME280;30381;52.754;18.258;2023-05-12T08:54:07;101389.09;;;21.61;31.17
44663;BME280;30381;52.754;18.258;2023-05-12T08:56:36;101399.77;;;21.63;30.58
44663;BME280;30381;52.754;18.258;2023-05-12T08:59:07;101395.86;;;21.49;30.79
44663;BME280;30381;52.754;18.258;2023-05-12T09:01:35;101402.91;;;21.50;30.39
44663;BME280;30381;52.754;18.258;2023-05-12T09:04:06;101397.08;;;21.43;30.15
44663;BME280;30381;52.754;18.258;2023-05-12T09:06:41;101403.76;;;21.41;30.32
44663;BME280;30381;52.754;18.258;2023-05-12T09:09:09;101404.38;;;21.51;30.41
44663;BME280;30381;52.754;18.258;2023-05-12T09:11:37;101404.09;;;21.52;30.32
44663;BME280;30381;52.754;18.258;2023-05-12T09:14:23;101401.51;;;21.52;29.92
44663;BME280;30381;52.754;18.258;2023-05-12T09:16:55;101397.95;;;21.38;30.30
44663;BME280;30381;52.754;18.258;2023-05-12T09:19:26;101402.34;;;21.34;30.91
44663;BME280;30381;52.754;18.258;2023-05-12T09:21:53;101395.85;;;21.39;31.03
44663;BME280;30381;52.754;18.258;2023-05-12T09:24:33;101382.02;;;21.48;31.11
44663;BME280;30381;52.754;18.258;2023-05-12T09:27:23;101387.02;;;21.52;31.11
44663;BME280;30381;52.754;18.258;2023-05-12T09:29:54;101378.83;;;21.69;31.42
44663;BME280;30381;52.754;18.258;2023-05-12T09:32:31;101391.22;;;21.77;30.47
44663;BME280;30381;52.754;18.258;2023-05-12T09:35:12;101390.98;;;21.71;31.07
44663;BME280;30381;52.754;18.258;2023-05-12T09:37:40;101391.23;;;21.73;30.39
44663;BME280;30381;52.754;18.258;2023-05-12T09:40:08;101390.59;;;21.65;30.33
44663;BME280;30381;52.754;18.258;2023-05-12T09:42:41;101388.20;;;21.72;29.80
44663;BME280;30381;52.754;18.258;2023-05-12T09:45:18;101392.02;;;21.70;29.46
44663;BME280;30381;52.754;18.258;2023-05-12T09:47:44;101389.16;;;21.54;29.45
44663;BME280;30381;52.754;18.258;2023-05-12T09:50:11;101396.58;;;21.44;29.94
44663;BME280;30381;52.754;18.258;2023-05-12T09:52:39;101397.85;;;21.50;29.75
44663;BME280;30381;52.754;18.258;2023-05-12T09:55:10;101400.48;;;21.37;29.68
44663;BME280;30381;52.754;18.258;2023-05-12T09:57:39;101383.88;;;21.48;30.19
44663;BME280;30381;52.754;18.258;2023-05-12T10:00:12;101384.04;;;21.65;29.75
44663;BME280;30381;52.754;18.258;2023-05-12T10:02:43;101390.71;;;21.75;29.59
44663;BME280;30381;52.754;18.258;2023-05-12T10:05:17;101387.70;;;21.62;29.68
44663;BME280;30381;52.754;18.258;2023-05-12T10:07:48;101388.45;;;21.64;29.59
44663;BME280;30381;52.754;18.258;2023-05-12T10:10:38;101391.52;;;21.61;29.95
44663;BME280;30381;52.754;18.258;2023-05-12T10:13:05;101388.29;;;21.54;29.51
44663;BME280;30381;52.754;18.258;2023-05-12T10:15:33;101386.31;;;21.58;29.88
44663;BME280;30381;52.754;18.258;2023-05-12T10:18:08;101379.98;;;21.75;30.14
44663;BME280;30381;52.754;18.258;2023-05-12T10:20:35;101377.45;;;21.96;30.17
44663;BME280;30381;52.754;18.258;2023-05-12T10:23:09;101380.90;;;22.16;29.58
44663;BME280;30381;52.754;18.258;2023-05-12T10:25:57;101385.67;;;22.18;29.19
44663;BME280;30381;52.754;18.258;2023-05-12T10:28:39;101384.94;;;22.10;29.31
44663;BME280;30381;52.754;18.258;2023-05-12T10:31:06;101382.04;;;22.00;28.88
44663;BME280;30381;52.754;18.258;2023-05-12T10:33:33;101388.70;;;21.98;28.37
44663;BME280;30381;52.754;18.258;2023-05-12T10:35:59;101387.52;;;21.91;28.44
44663;BME280;30381;52.754;18.258;2023-05-12T10:38:33;101388.45;;;21.90;28.22
44663;BME280;30381;52.754;18.258;2023-05-12T10:41:03;101381.04;;;21.73;28.80
44663;BME280;30381;52.754;18.258;2023-05-12T10:43:42;101373.84;;;21.82;29.32
44663;BME280;30381;52.754;18.258;2023-05-12T10:49:02;101373.67;;;22.08;29.34
44663;BME280;30381;52.754;18.258;2023-05-12T10:51:48;101382.20;;;22.07;29.19
44663;BME280;30381;52.754;18.258;2023-05-12T10:54:23;101373.05;;;22.09;29.21
44663;BME280;30381;52.754;18.258;2023-05-12T10:56:51;101371.02;;;22.16;29.48
44663;BME280;30381;52.754;18.258;2023-05-12T10:59:20;101365.48;;;22.24;29.09
44663;BME280;30381;52.754;18.258;2023-05-12T11:02:01;101371.34;;;22.09;28.97
44663;BME280;30381;52.754;18.258;2023-05-12T11:07:12;101372.34;;;21.93;29.39
44663;BME280;30381;52.754;18.258;2023-05-12T11:09:44;101364.34;;;21.96;28.73
44663;BME280;30381;52.754;18.258;2023-05-12T11:12:12;101358.19;;;21.84;28.81
44663;BME280;30381;52.754;18.258;2023-05-12T11:14:42;101372.61;;;21.83;28.67
44663;BME280;30381;52.754;18.258;2023-05-12T11:17:15;101376.58;;;21.87;28.73
44663;BME280;30381;52.754;18.258;2023-05-12T11:19:46;101370.50;;;21.90;28.95
44663;BME280;30381;52.754;18.258;2023-05-12T11:22:16;101365.91;;;21.86;28.99
44663;BME280;30381;52.754;18.258;2023-05-12T11:24:44;101373.83;;;21.79;28.78
44663;BME280;30381;52.754;18.258;2023-05-12T11:27:17;101362.18;;;21.76;28.92
44663;BME280;30381;52.754;18.258;2023-05-12T11:29:53;101362.90;;;21.80;29.54
44663;BME280;30381;52.754;18.258;2023-05-12T11:32:21;101367.80;;;21.97;29.37
44663;BME280;30381;52.754;18.258;2023-05-12T11:34:47;101363.36;;;22.04;28.29
44663;BME280;30381;52.754;18.258;2023-05-12T11:37:14;101373.59;;;21.96;28.66
44663;BME280;30381;52.754;18.258;2023-05-12T11:39:41;101372.19;;;21.86;28.78
44663;BME280;30381;52.754;18.258;2023-05-12T11:42:07;101372.52;;;21.83;28.53
44663;BME280;30381;52.754;18.258;2023-05-12T11:44:47;101367.34;;;21.82;28.52
44663;BME280;30381;52.754;18.258;2023-05-12T11:47:18;101363.42;;;21.87;28.73
44663;BME280;30381;52.754;18.258;2023-05-12T11:50:11;101359.07;;;22.01;28.99
44663;BME280;30381;52.754;18.258;2023-05-12T11:52:45;101354.08;;;22.07;28.91
44663;BME280;30381;52.754;18.258;2023-05-12T11:55:11;101359.45;;;22.14;28.56
44663;BME280;30381;52.754;18.258;2023-05-12T11:57:37;101359.45;;;22.08;28.39
44663;BME280;30381;52.754;18.258;2023-05-12T12:00:28;101354.44;;;21.94;28.25
44663;BME280;30381;52.754;18.258;2023-05-12T12:03:08;101349.65;;;21.88;28.88
44663;BME280;30381;52.754;18.258;2023-05-12T12:05:37;101353.83;;;22.13;29.05
44663;BME280;30381;52.754;18.258;2023-05-12T12:08:11;101366.09;;;22.20;28.57
44663;BME280;30381;52.754;18.258;2023-05-12T12:10:44;101364.14;;;22.21;28.76
44663;BME280;30381;52.754;18.258;2023-05-12T12:13:24;101364.96;;;22.21;28.44
44663;BME280;30381;52.754;18.258;2023-05-12T12:15:52;101358.17;;;22.14;28.48
44663;BME280;30381;52.754;18.258;2023-05-12T12:18:28;101361.43;;;22.18;28.76
44663;BME280;30381;52.754;18.258;2023-05-12T12:20:54;101358.20;;;22.25;28.48
44663;BME280;30381;52.754;18.258;2023-05-12T12:23:20;101357.36;;;22.29;28.80
44663;BME280;30381;52.754;18.258;2023-05-12T12:25:48;101358.64;;;22.37;28.49
44663;BME280;30381;52.754;18.258;2023-05-12T12:28:14;101352.30;;;22.21;27.91
44663;BME280;30381;52.754;18.258;2023-05-12T12:30:41;101356.13;;;22.18;28.24
44663;BME280;30381;52.754;18.258;2023-05-12T12:33:07;101357.33;;;22.20;28.40
44663;BME280;30381;52.754;18.258;2023-05-12T12:35:35;101355.86;;;22.26;28.11
44663;BME280;30381;52.754;18.258;2023-05-12T12:38:03;101360.42;;;22.19;27.30
44663;BME280;30381;52.754;18.258;2023-05-12T12:40:34;101352.09;;;22.07;27.86
44663;BME280;30381;52.754;18.258;2023-05-12T12:43:00;101358.63;;;22.10;28.38
44663;BME280;30381;52.754;18.258;2023-05-12T12:45:31;101354.65;;;22.09;28.06
44663;BME280;30381;52.754;18.258;2023-05-12T12:47:57;101344.91;;;22.13;28.10
44663;BME280;30381;52.754;18.258;2023-05-12T12:50:24;101347.14;;;22.19;28.32
44663;BME280;30381;52.754;18.258;2023-05-12T12:52:50;101338.63;;;22.25;28.44
44663;BME280;30381;52.754;18.258;2023-05-12T12:57:43;101333.60;;;22.34;27.90
44663;BME280;30381;52.754;18.258;2023-05-12T13:00:14;101327.23;;;22.28;28.27
44663;BME280;30381;52.754;18.258;2023-05-12T13:02:40;101328.45;;;22.25;28.42
44663;BME280;30381;52.754;18.258;2023-05-12T13:05:07;101335.02;;;22.19;28.12
44663;BME280;30381;52.754;18.258;2023-05-12T13:07:34;101341.12;;;22.13;27.61
44663;BME280;30381;52.754;18.258;2023-05-12T13:10:02;101332.98;;;21.99;27.56
44663;BME280;30381;52.754;18.258;2023-05-12T13:12:28;101329.77;;;21.90;27.92